CheckWX is a tool to help pilots better visualize weather data.  It is not intended as a substitute for an official pre-flight weather briefing.

08:04:12 UTC

KHIO TAF
Portland-Hillsboro Airport
Portland, Oregon, USA
KHIO 190520Z 1906/2006 08011G18KT P6SM SKC FM200300 07012KT P6SM SKC

Mar-19@
06:00 UTC

Mar-19 @ 06:00 UTC

Mar-20@
03:00 UTC

Mar-20 @ 03:00 UTC

KHIO 190520Z 1906/2006 08011G18KT P6SM SKC
Wind
  • 080° at 11 KTS
  • {Gusting to 18 KTS
Cloud Levels
  • Clear skies

Mar-20@
03:00 UTC

Mar-20 @ 03:00 UTC

Mar-20@
06:00 UTC

Mar-20 @ 06:00 UTC

FM200300 07012KT P6SM SKC

From

From Standard forecast or significant change

Wind
  • 070° at 12 KTS
Cloud Levels
  • Clear skies